This demonstration page uses our WeatherBlox Daily Observations layout. Learn more.

39.08367, -84.50855

Hourly Observations for January 1, 2020

Temp ( °F °C ) Dew Point ( °F °C ) Humidity (%) Winds ( mph kmh ) Pressure ( in mb ) Visibility ( mi km ) Precip ( " mm )
12:53 am 00:53 Cloudy 36 2.2 27 -2.8 70 70 WSW 12 19 29.93 1014 10 16.0934 0 0
1:53 am 01:53 Cloudy 36 2.2 26 -3.3 67 67 W 10 17 29.93 1014 10 16.0934 0 0
2:53 am 02:53 Cloudy 36 2.2 26 -3.3 67 67 W 13 20 29.94 1014 10 16.0934 0 0
3:30 am 03:30 Cloudy 36 2.2 26 -3.3 67 67 WSW 8 13 29.96 1015 10 16.0934 0 0
3:53 am 03:53 Cloudy 36 2.2 27 -2.8 70 70 WSW 9 15 29.94 1014 10 16.0934 0 0
4:53 am 04:53 Cloudy 36 2.2 28 -2.2 73 73 WSW 12 19 29.94 1014 10 16.0934 0 0
5:53 am 05:53 Cloudy 36 2.2 28 -2.2 73 73 WSW 8 13 29.94 1014 10 16.0934 0 0
6:53 am 06:53 Cloudy 36 2.2 28 -2.2 73 73 WSW 12 19 29.95 1014 10 16.0934 0 0
7:53 am 07:53 Cloudy 37 2.8 28 -2.2 70 70 WSW 7 11 29.97 1015 10 16.0934 0 0
8:53 am 08:53 Cloudy 37 2.8 28 -2.2 70 70 WSW 10 17 29.98 1015 10 16.0934 0 0
9:53 am 09:53 Mostly Cloudy 38 3.3 28 -2.2 68 68 WSW 12 19 30 1016 10 16.0934 0 0
10:53 am 10:53 Partly Cloudy 40 4.4 30 -1.1 68 68 SSW 12 19 30 1016 10 16.0934 0 0
11:53 am 11:53 Partly Cloudy 43 6.1 30 -1.1 60 60 WSW 9 15 29.98 1015 10 16.0934 0 0
12:53 pm 12:53 Mostly Sunny 45 7.2 31 -0.6 58 58 SSW 14 22 29.95 1014 10 16.0934 0 0
1:53 pm 13:53 Sunny 47 8.3 30 -1.1 52 52 WSW 10 17 29.92 1013 10 16.0934 0 0
2:53 pm 14:53 Sunny 48 8.9 30 -1.1 50 50 SSW 15 24 29.9 1013 10 16.0934 0 0
3:53 pm 15:53 Sunny 48 8.9 29 -1.7 48 48 SSW 12 19 29.9 1013 10 16.0934 0 0
4:53 pm 16:53 Sunny 46 7.8 28 -2.2 50 50 SSW 12 19 29.9 1013 10 16.0934 0 0
5:53 pm 17:53 Clear 38 3.3 26 -3.3 62 62 SSW 9 15 29.9 1012 10 16.0934 0 0
6:53 pm 18:53 Clear 39 3.9 25 -3.9 57 57 SSW 6 9 29.91 1013 10 16.0934 0 0
7:53 pm 19:53 Clear 36 2.2 25 -3.9 64 64 S 8 13 29.9 1012 10 16.0934 0 0
8:53 pm 20:53 Clear 38 3.3 24 -4.4 57 57 S 8 13 29.88 1012 10 16.0934 0 0
9:53 pm 21:53 Clear 36 2.2 24 -4.4 62 62 SSW 9 15 29.89 1012 10 16.0934 0 0
10:53 pm 22:53 Clear 35 1.7 23 -5 61 61 S 9 15 29.89 1012 10 16.0934 0 0
11:53 pm 23:53 Clear 36 2.2 23 -5 59 59 SSW 6 9 29.88 1012 10 16.0934 0 0

Powered by AerisWeather